sensor_id;sensor_type;location;lat;lon;timestamp;pressure;altitude;pressure_sealevel;temperature;humidity
8398;BME280;4236;54.504;9.588;2022-09-03T00:01:44;101891.41;;;15.57;83.79
8398;BME280;4236;54.504;9.588;2022-09-03T00:04:21;101876.94;;;15.58;83.23
8398;BME280;4236;54.504;9.588;2022-09-03T00:06:59;101883.16;;;15.59;83.34
8398;BME280;4236;54.504;9.588;2022-09-03T00:09:29;101886.47;;;15.61;83.01
8398;BME280;4236;54.504;9.588;2022-09-03T00:12:04;101875.72;;;15.61;83.12
8398;BME280;4236;54.504;9.588;2022-09-03T00:14:36;101877.38;;;15.62;83.10
8398;BME280;4236;54.504;9.588;2022-09-03T00:17:10;101878.84;;;15.64;82.86
8398;BME280;4236;54.504;9.588;2022-09-03T00:19:43;101873.22;;;15.66;82.74
8398;BME280;4236;54.504;9.588;2022-09-03T00:22:16;101870.34;;;15.67;82.63
8398;BME280;4236;54.504;9.588;2022-09-03T00:24:46;101872.41;;;15.65;82.68
8398;BME280;4236;54.504;9.588;2022-09-03T00:27:19;101874.06;;;15.66;82.40
8398;BME280;4236;54.504;9.588;2022-09-03T00:29:54;101868.69;;;15.66;82.37
8398;BME280;4236;54.504;9.588;2022-09-03T00:32:27;101872.22;;;15.67;82.34
8398;BME280;4236;54.504;9.588;2022-09-03T00:35:00;101871.38;;;15.66;82.24
8398;BME280;4236;54.504;9.588;2022-09-03T00:37:28;101864.97;;;15.67;81.97
8398;BME280;4236;54.504;9.588;2022-09-03T00:40:04;101861.47;;;15.67;82.46
8398;BME280;4236;54.504;9.588;2022-09-03T00:42:43;101864.75;;;15.69;82.00
8398;BME280;4236;54.504;9.588;2022-09-03T00:45:26;101862.06;;;15.69;82.00
8398;BME280;4236;54.504;9.588;2022-09-03T00:48:07;101862.28;;;15.67;82.15
8398;BME280;4236;54.504;9.588;2022-09-03T00:50:54;101859.78;;;15.66;82.63
8398;BME280;4236;54.504;9.588;2022-09-03T00:53:33;101843.66;;;15.66;82.51
8398;BME280;4236;54.504;9.588;2022-09-03T00:56:08;101856.25;;;15.65;82.51
8398;BME280;4236;54.504;9.588;2022-09-03T00:58:54;101850.47;;;15.68;82.44
8398;BME280;4236;54.504;9.588;2022-09-03T01:01:31;101855.84;;;15.68;82.61
8398;BME280;4236;54.504;9.588;2022-09-03T01:04:20;101860.22;;;15.69;82.73
8398;BME280;4236;54.504;9.588;2022-09-03T01:06:56;101850.28;;;15.70;83.12
8398;BME280;4236;54.504;9.588;2022-09-03T01:09:40;101853.81;;;15.70;83.20
8398;BME280;4236;54.504;9.588;2022-09-03T01:12:18;101857.13;;;15.72;83.18
8398;BME280;4236;54.504;9.588;2022-09-03T01:14:58;101846.38;;;15.72;83.55
8398;BME280;4236;54.504;9.588;2022-09-03T01:17:38;101851.97;;;15.71;83.77
8398;BME280;4236;54.504;9.588;2022-09-03T01:20:25;101859.19;;;15.70;83.94
8398;BME280;4236;54.504;9.588;2022-09-03T01:23:09;101852.97;;;15.70;84.58
8398;BME280;4236;54.504;9.588;2022-09-03T01:25:50;101848.63;;;15.69;84.89
8398;BME280;4236;54.504;9.588;2022-09-03T01:28:28;101851.53;;;15.67;85.56
8398;BME280;4236;54.504;9.588;2022-09-03T01:31:08;101856.06;;;15.67;85.67
8398;BME280;4236;54.504;9.588;2022-09-03T01:33:43;101855.25;;;15.66;85.73
8398;BME280;4236;54.504;9.588;2022-09-03T01:36:22;101847.19;;;15.66;86.08
8398;BME280;4236;54.504;9.588;2022-09-03T01:38:52;101848.19;;;15.65;86.22
8398;BME280;4236;54.504;9.588;2022-09-03T01:41:29;101844.72;;;15.65;86.43
8398;BME280;4236;54.504;9.588;2022-09-03T01:44:29;101842.41;;;15.62;86.77
8398;BME280;4236;54.504;9.588;2022-09-03T01:47:11;101848.00;;;15.60;87.21
8398;BME280;4236;54.504;9.588;2022-09-03T01:49:47;101852.34;;;15.61;87.16
8398;BME280;4236;54.504;9.588;2022-09-03T01:52:20;101851.09;;;15.57;87.79
8398;BME280;4236;54.504;9.588;2022-09-03T01:55:04;101852.75;;;15.58;87.99
8398;BME280;4236;54.504;9.588;2022-09-03T01:57:41;101850.06;;;15.58;88.18
8398;BME280;4236;54.504;9.588;2022-09-03T02:00:16;101854.59;;;15.58;88.23
8398;BME280;4236;54.504;9.588;2022-09-03T02:02:47;101846.94;;;15.55;88.24
8398;BME280;4236;54.504;9.588;2022-09-03T02:05:19;101849.63;;;15.55;88.45
8398;BME280;4236;54.504;9.588;2022-09-03T02:07:53;101856.88;;;15.54;88.22
8398;BME280;4236;54.504;9.588;2022-09-03T02:10:25;101849.63;;;15.55;88.30
8398;BME280;4236;54.504;9.588;2022-09-03T02:13:00;101848.59;;;15.56;88.48
8398;BME280;4236;54.504;9.588;2022-09-03T02:15:30;101846.94;;;15.55;88.42
8398;BME280;4236;54.504;9.588;2022-09-03T02:18:02;101844.25;;;15.55;88.30
8398;BME280;4236;54.504;9.588;2022-09-03T02:20:31;101842.59;;;15.54;88.33
8398;BME280;4236;54.504;9.588;2022-09-03T02:22:59;101848.19;;;15.52;88.66
8398;BME280;4236;54.504;9.588;2022-09-03T02:25:31;101844.88;;;15.50;88.65
8398;BME280;4236;54.504;9.588;2022-09-03T02:27:59;101830.78;;;15.48;88.71
8398;BME280;4236;54.504;9.588;2022-09-03T02:30:27;101837.38;;;15.45;88.78
8398;BME280;4236;54.504;9.588;2022-09-03T02:32:56;101838.59;;;15.43;88.84
8398;BME280;4236;54.504;9.588;2022-09-03T02:35:23;101827.41;;;15.39;88.91
8398;BME280;4236;54.504;9.588;2022-09-03T02:37:51;101831.34;;;15.37;89.18
8398;BME280;4236;54.504;9.588;2022-09-03T02:40:19;101835.47;;;15.33;88.75
8398;BME280;4236;54.504;9.588;2022-09-03T02:42:47;101833.81;;;15.32;89.13
8398;BME280;4236;54.504;9.588;2022-09-03T02:45:20;101829.88;;;15.28;89.15
8398;BME280;4236;54.504;9.588;2022-09-03T02:47:53;101825.72;;;15.25;89.40
8398;BME280;4236;54.504;9.588;2022-09-03T02:50:23;101833.34;;;15.22;89.41
8398;BME280;4236;54.504;9.588;2022-09-03T02:52:51;101832.72;;;15.20;89.61
8398;BME280;4236;54.504;9.588;2022-09-03T02:55:20;101828.56;;;15.17;89.64
8398;BME280;4236;54.504;9.588;2022-09-03T02:57:47;101822.56;;;15.15;89.60
8398;BME280;4236;54.504;9.588;2022-09-03T03:00:16;101823.81;;;15.13;89.88
8398;BME280;4236;54.504;9.588;2022-09-03T03:02:44;101820.50;;;15.11;89.70
8398;BME280;4236;54.504;9.588;2022-09-03T03:05:17;101821.72;;;15.08;90.04
8398;BME280;4236;54.504;9.588;2022-09-03T03:07:49;101820.06;;;15.07;90.18
8398;BME280;4236;54.504;9.588;2022-09-03T03:10:17;101821.28;;;15.05;89.98
8398;BME280;4236;54.504;9.588;2022-09-03T03:12:44;101827.06;;;15.02;90.19
8398;BME280;4236;54.504;9.588;2022-09-03T03:15:12;101823.94;;;14.98;90.12
8398;BME280;4236;54.504;9.588;2022-09-03T03:17:40;101823.31;;;14.96;90.10
8398;BME280;4236;54.504;9.588;2022-09-03T03:20:09;101822.88;;;14.92;90.45
8398;BME280;4236;54.504;9.588;2022-09-03T03:22:37;101825.75;;;14.91;90.53
8398;BME280;4236;54.504;9.588;2022-09-03T03:25:06;101829.28;;;14.91;90.71
8398;BME280;4236;54.504;9.588;2022-09-03T03:27:35;101830.69;;;14.87;90.87
8398;BME280;4236;54.504;9.588;2022-09-03T03:30:07;101830.69;;;14.87;90.98
8398;BME280;4236;54.504;9.588;2022-09-03T03:32:36;101828.00;;;14.87;90.67
8398;BME280;4236;54.504;9.588;2022-09-03T03:35:05;101828.22;;;14.86;90.95
8398;BME280;4236;54.504;9.588;2022-09-03T03:37:32;101839.78;;;14.86;91.12
8398;BME280;4236;54.504;9.588;2022-09-03T03:40:01;101838.75;;;14.87;90.86
8398;BME280;4236;54.504;9.588;2022-09-03T03:42:33;101837.72;;;14.88;90.71
8398;BME280;4236;54.504;9.588;2022-09-03T03:45:00;101831.53;;;14.88;90.95
8398;BME280;4236;54.504;9.588;2022-09-03T03:47:29;101831.53;;;14.88;90.44
8398;BME280;4236;54.504;9.588;2022-09-03T03:49:57;101834.22;;;14.88;90.61
8398;BME280;4236;54.504;9.588;2022-09-03T03:52:26;101832.75;;;14.85;90.45
8398;BME280;4236;54.504;9.588;2022-09-03T03:54:54;101839.59;;;14.88;90.90
8398;BME280;4236;54.504;9.588;2022-09-03T03:57:22;101829.06;;;14.86;91.28
8398;BME280;4236;54.504;9.588;2022-09-03T03:59:51;101838.75;;;14.87;91.15
8398;BME280;4236;54.504;9.588;2022-09-03T04:02:19;101839.59;;;14.88;91.17
8398;BME280;4236;54.504;9.588;2022-09-03T04:04:46;101846.81;;;14.87;91.58
8398;BME280;4236;54.504;9.588;2022-09-03T04:07:14;101845.16;;;14.86;91.29
8398;BME280;4236;54.504;9.588;2022-09-03T04:09:42;101848.88;;;14.85;91.80
8398;BME280;4236;54.504;9.588;2022-09-03T04:12:09;101847.19;;;14.84;91.64
8398;BME280;4236;54.504;9.588;2022-09-03T04:14:37;101853.63;;;14.83;91.43
8398;BME280;4236;54.504;9.588;2022-09-03T04:17:06;101852.78;;;14.83;91.70
8398;BME280;4236;54.504;9.588;2022-09-03T04:19:34;101849.47;;;14.81;92.01
8398;BME280;4236;54.504;9.588;2022-09-03T04:22:01;101845.97;;;14.80;91.47
8398;BME280;4236;54.504;9.588;2022-09-03T04:24:29;101853.34;;;14.78;91.58
8398;BME280;4236;54.504;9.588;2022-09-03T04:26:57;101851.91;;;14.76;91.78
8398;BME280;4236;54.504;9.588;2022-09-03T04:29:25;101853.13;;;14.73;92.13
8398;BME280;4236;54.504;9.588;2022-09-03T04:31:56;101857.88;;;14.71;91.57
8398;BME280;4236;54.504;9.588;2022-09-03T04:34:42;101860.94;;;14.68;91.95
8398;BME280;4236;54.504;9.588;2022-09-03T04:37:10;101863.00;;;14.66;91.66
8398;BME280;4236;54.504;9.588;2022-09-03T04:39:38;101863.19;;;14.65;91.76
8398;BME280;4236;54.504;9.588;2022-09-03T04:42:05;101855.34;;;14.63;91.80
8398;BME280;4236;54.504;9.588;2022-09-03T04:44:33;101863.41;;;14.63;91.88
8398;BME280;4236;54.504;9.588;2022-09-03T04:47:04;101852.66;;;14.63;91.84
8398;BME280;4236;54.504;9.588;2022-09-03T04:49:31;101855.53;;;14.62;91.92
8398;BME280;4236;54.504;9.588;2022-09-03T04:52:01;101858.22;;;14.62;92.27
8398;BME280;4236;54.504;9.588;2022-09-03T04:54:30;101867.72;;;14.64;92.14
8398;BME280;4236;54.504;9.588;2022-09-03T04:56:57;101865.50;;;14.68;92.39
8398;BME280;4236;54.504;9.588;2022-09-03T04:59:25;101871.31;;;14.71;91.61
8398;BME280;4236;54.504;9.588;2022-09-03T05:01:53;101865.31;;;14.76;92.01
8398;BME280;4236;54.504;9.588;2022-09-03T05:04:22;101865.16;;;14.77;91.61
8398;BME280;4236;54.504;9.588;2022-09-03T05:06:49;101862.25;;;14.79;91.31
8398;BME280;4236;54.504;9.588;2022-09-03T05:09:18;101863.53;;;14.83;91.36
8398;BME280;4236;54.504;9.588;2022-09-03T05:11:46;101867.47;;;14.87;90.84
8398;BME280;4236;54.504;9.588;2022-09-03T05:14:14;101873.09;;;14.92;90.51
8398;BME280;4236;54.504;9.588;2022-09-03T05:16:41;101867.09;;;14.96;90.48
8398;BME280;4236;54.504;9.588;2022-09-03T05:19:18;101874.38;;;15.03;90.42
8398;BME280;4236;54.504;9.588;2022-09-03T05:21:45;101868.22;;;15.09;89.90
8398;BME280;4236;54.504;9.588;2022-09-03T05:24:13;101869.53;;;15.19;89.70
8398;BME280;4236;54.504;9.588;2022-09-03T05:26:42;101872.88;;;15.28;89.18
8398;BME280;4236;54.504;9.588;2022-09-03T05:29:10;101879.31;;;15.40;89.13
8398;BME280;4236;54.504;9.588;2022-09-03T05:31:38;101876.47;;;15.48;87.99
8398;BME280;4236;54.504;9.588;2022-09-03T05:34:07;101885.84;;;15.59;88.01
8398;BME280;4236;54.504;9.588;2022-09-03T05:36:36;101887.31;;;15.68;87.34
8398;BME280;4236;54.504;9.588;2022-09-03T05:39:05;101888.16;;;15.75;86.30
8398;BME280;4236;54.504;9.588;2022-09-03T05:41:33;101882.41;;;15.84;86.03
8398;BME280;4236;54.504;9.588;2022-09-03T05:44:02;101886.56;;;15.93;85.70
8398;BME280;4236;54.504;9.588;2022-09-03T05:46:33;101874.75;;;16.01;85.23
8398;BME280;4236;54.504;9.588;2022-09-03T05:49:05;101878.09;;;16.10;84.67
8398;BME280;4236;54.504;9.588;2022-09-03T05:51:34;101871.91;;;16.16;84.01
8398;BME280;4236;54.504;9.588;2022-09-03T05:54:02;101871.50;;;16.19;83.42
8398;BME280;4236;54.504;9.588;2022-09-03T05:56:31;101875.22;;;16.18;82.07
8398;BME280;4236;54.504;9.588;2022-09-03T05:59:04;101871.28;;;16.20;81.82
8398;BME280;4236;54.504;9.588;2022-09-03T06:01:33;101869.41;;;16.21;80.94
8398;BME280;4236;54.504;9.588;2022-09-03T06:04:03;101867.53;;;16.28;80.11
8398;BME280;4236;54.504;9.588;2022-09-03T06:06:35;101866.31;;;16.30;78.19
8398;BME280;4236;54.504;9.588;2022-09-03T06:09:04;101872.94;;;16.34;77.37
8398;BME280;4236;54.504;9.588;2022-09-03T06:11:34;101867.56;;;16.47;78.48
8398;BME280;4236;54.504;9.588;2022-09-03T06:14:06;101877.50;;;16.53;76.64
8398;BME280;4236;54.504;9.588;2022-09-03T06:16:36;101868.38;;;16.68;77.15
8398;BME280;4236;54.504;9.588;2022-09-03T06:19:05;101874.19;;;16.78;75.31
8398;BME280;4236;54.504;9.588;2022-09-03T06:21:35;101877.06;;;16.83;73.95
8398;BME280;4236;54.504;9.588;2022-09-03T06:24:09;101874.13;;;16.97;72.81
8398;BME280;4236;54.504;9.588;2022-09-03T06:26:37;101874.72;;;17.06;72.30
8398;BME280;4236;54.504;9.588;2022-09-03T06:29:09;101870.47;;;17.36;70.12
8398;BME280;4236;54.504;9.588;2022-09-03T06:31:38;101875.41;;;17.52;69.66
8398;BME280;4236;54.504;9.588;2022-09-03T06:34:06;101872.94;;;17.89;69.21
8398;BME280;4236;54.504;9.588;2022-09-03T06:36:34;101869.94;;;18.28;66.39
8398;BME280;4236;54.504;9.588;2022-09-03T06:39:01;101877.28;;;18.70;65.44
8398;BME280;4236;54.504;9.588;2022-09-03T06:41:30;101859.88;;;18.85;64.73
8398;BME280;4236;54.504;9.588;2022-09-03T06:44:00;101872.41;;;19.40;62.89
8398;BME280;4236;54.504;9.588;2022-09-03T06:46:31;101870.88;;;20.33;60.13
8398;BME280;4236;54.504;9.588;2022-09-03T06:49:00;101873.00;;;20.78;57.13
8398;BME280;4236;54.504;9.588;2022-09-03T06:51:29;101868.44;;;21.70;55.61
8398;BME280;4236;54.504;9.588;2022-09-03T06:53:59;101863.44;;;22.23;52.24
8398;BME280;4236;54.504;9.588;2022-09-03T06:56:27;101860.31;;;22.65;50.02
8398;BME280;4236;54.504;9.588;2022-09-03T06:58:56;101861.25;;;22.92;48.40
8398;BME280;4236;54.504;9.588;2022-09-03T07:01:26;101863.31;;;23.23;46.09
8398;BME280;4236;54.504;9.588;2022-09-03T07:03:58;101862.75;;;23.43;46.09
8398;BME280;4236;54.504;9.588;2022-09-03T07:06:28;101867.00;;;23.82;48.23
8398;BME280;4236;54.504;9.588;2022-09-03T07:08:56;101864.81;;;23.84;44.77
8398;BME280;4236;54.504;9.588;2022-09-03T07:11:27;101868.00;;;23.49;45.56
8398;BME280;4236;54.504;9.588;2022-09-03T07:13:56;101873.81;;;23.58;46.84
8398;BME280;4236;54.504;9.588;2022-09-03T07:16:26;101869.44;;;23.57;45.85
8398;BME280;4236;54.504;9.588;2022-09-03T07:18:54;101870.25;;;23.57;46.52
8398;BME280;4236;54.504;9.588;2022-09-03T07:21:25;101873.97;;;23.46;42.99
8398;BME280;4236;54.504;9.588;2022-09-03T07:23:54;101874.75;;;23.25;45.11
8398;BME280;4236;54.504;9.588;2022-09-03T07:26:23;101874.31;;;23.11;44.68
8398;BME280;4236;54.504;9.588;2022-09-03T07:28:52;101873.47;;;22.89;45.21
8398;BME280;4236;54.504;9.588;2022-09-03T07:31:21;101871.44;;;22.63;45.62
8398;BME280;4236;54.504;9.588;2022-09-03T07:33:52;101869.53;;;22.64;46.39
8398;BME280;4236;54.504;9.588;2022-09-03T07:36:24;101882.53;;;22.12;44.95
8398;BME280;4236;54.504;9.588;2022-09-03T07:38:54;101881.91;;;22.21;46.36
8398;BME280;4236;54.504;9.588;2022-09-03T07:41:23;101879.69;;;21.90;46.65
8398;BME280;4236;54.504;9.588;2022-09-03T07:43:55;101876.19;;;21.78;46.99
8398;BME280;4236;54.504;9.588;2022-09-03T07:46:24;101872.50;;;21.84;47.16
8398;BME280;4236;54.504;9.588;2022-09-03T07:48:54;101869.09;;;21.88;47.67
8398;BME280;4236;54.504;9.588;2022-09-03T07:51:25;101868.88;;;22.07;46.66
8398;BME280;4236;54.504;9.588;2022-09-03T07:53:54;101865.56;;;21.88;45.43
8398;BME280;4236;54.504;9.588;2022-09-03T07:56:23;101860.06;;;21.99;46.35
8398;BME280;4236;54.504;9.588;2022-09-03T07:58:51;101859.25;;;22.49;46.25
8398;BME280;4236;54.504;9.588;2022-09-03T08:01:21;101856.00;;;22.85;45.71
8398;BME280;4236;54.504;9.588;2022-09-03T08:03:50;101868.56;;;23.08;44.42
8398;BME280;4236;54.504;9.588;2022-09-03T08:06:20;101857.53;;;22.98;44.21
8398;BME280;4236;54.504;9.588;2022-09-03T08:08:53;101858.50;;;23.08;43.73
8398;BME280;4236;54.504;9.588;2022-09-03T08:11:29;101867.03;;;22.95;41.97
8398;BME280;4236;54.504;9.588;2022-09-03T08:13:58;101862.78;;;22.49;42.85
8398;BME280;4236;54.504;9.588;2022-09-03T08:16:28;101861.53;;;22.40;43.45
8398;BME280;4236;54.504;9.588;2022-09-03T08:18:56;101868.41;;;22.43;42.06
8398;BME280;4236;54.504;9.588;2022-09-03T08:21:25;101861.00;;;22.22;43.22
8398;BME280;4236;54.504;9.588;2022-09-03T08:23:55;101863.84;;;22.32;43.66
8398;BME280;4236;54.504;9.588;2022-09-03T08:26:29;101863.44;;;22.07;41.86
8398;BME280;4236;54.504;9.588;2022-09-03T08:28:57;101852.56;;;22.07;42.81
8398;BME280;4236;54.504;9.588;2022-09-03T08:31:25;101859.63;;;21.91;42.76
8398;BME280;4236;54.504;9.588;2022-09-03T08:33:55;101867.03;;;21.95;42.46
8398;BME280;4236;54.504;9.588;2022-09-03T08:36:24;101868.06;;;22.06;42.44
8398;BME280;4236;54.504;9.588;2022-09-03T08:38:53;101862.22;;;21.86;41.33
8398;BME280;4236;54.504;9.588;2022-09-03T08:41:27;101867.78;;;22.08;42.05
8398;BME280;4236;54.504;9.588;2022-09-03T08:44:08;101857.75;;;22.08;41.78
8398;BME280;4236;54.504;9.588;2022-09-03T08:46:47;101865.25;;;22.18;42.63
8398;BME280;4236;54.504;9.588;2022-09-03T08:49:22;101861.97;;;22.16;40.86
8398;BME280;4236;54.504;9.588;2022-09-03T08:51:53;101870.91;;;22.16;40.67
8398;BME280;4236;54.504;9.588;2022-09-03T08:54:26;101852.66;;;22.28;40.16
8398;BME280;4236;54.504;9.588;2022-09-03T08:57:00;101864.44;;;22.17;38.96
8398;BME280;4236;54.504;9.588;2022-09-03T08:59:29;101879.50;;;22.41;39.81
8398;BME280;4236;54.504;9.588;2022-09-03T09:02:04;101856.22;;;22.45;39.91
8398;BME280;4236;54.504;9.588;2022-09-03T09:04:45;101863.66;;;22.55;39.48
8398;BME280;4236;54.504;9.588;2022-09-03T09:07:24;101859.72;;;22.79;38.42
8398;BME280;4236;54.504;9.588;2022-09-03T09:10:02;101862.09;;;22.92;37.72
8398;BME280;4236;54.504;9.588;2022-09-03T09:12:42;101866.91;;;22.69;35.31
8398;BME280;4236;54.504;9.588;2022-09-03T09:15:18;101864.16;;;22.52;36.73
8398;BME280;4236;54.504;9.588;2022-09-03T09:18:02;101864.19;;;22.69;37.12
8398;BME280;4236;54.504;9.588;2022-09-03T09:20:37;101858.00;;;22.56;35.34
8398;BME280;4236;54.504;9.588;2022-09-03T09:23:12;101858.22;;;22.55;35.88
8398;BME280;4236;54.504;9.588;2022-09-03T09:25:46;101859.72;;;22.63;36.15
8398;BME280;4236;54.504;9.588;2022-09-03T09:28:18;101852.25;;;22.20;35.29
8398;BME280;4236;54.504;9.588;2022-09-03T09:30:48;101852.38;;;22.80;36.26
8398;BME280;4236;54.504;9.588;2022-09-03T09:33:18;101857.22;;;22.94;35.58
8398;BME280;4236;54.504;9.588;2022-09-03T09:35:47;101857.22;;;22.94;34.02
8398;BME280;4236;54.504;9.588;2022-09-03T09:38:26;101852.78;;;23.10;33.90
8398;BME280;4236;54.504;9.588;2022-09-03T09:40:54;101854.44;;;23.11;34.17
8398;BME280;4236;54.504;9.588;2022-09-03T09:43:24;101839.69;;;23.07;34.19
8398;BME280;4236;54.504;9.588;2022-09-03T09:45:52;101848.69;;;23.29;35.12
8398;BME280;4236;54.504;9.588;2022-09-03T09:48:25;101841.78;;;23.22;33.68
8398;BME280;4236;54.504;9.588;2022-09-03T09:51:04;101845.38;;;23.27;34.63
8398;BME280;4236;54.504;9.588;2022-09-03T09:53:32;101858.28;;;23.15;33.92
8398;BME280;4236;54.504;9.588;2022-09-03T09:56:00;101839.94;;;23.27;33.46
8398;BME280;4236;54.504;9.588;2022-09-03T09:58:31;101834.00;;;22.87;33.67
8398;BME280;4236;54.504;9.588;2022-09-03T10:01:02;101843.88;;;22.93;33.89
8398;BME280;4236;54.504;9.588;2022-09-03T10:03:46;101836.59;;;22.60;33.85
8398;BME280;4236;54.504;9.588;2022-09-03T10:06:15;101837.94;;;22.96;33.57
8398;BME280;4236;54.504;9.588;2022-09-03T10:09:07;101846.97;;;23.01;34.48
8398;BME280;4236;54.504;9.588;2022-09-03T10:11:37;101833.88;;;22.98;34.28
8398;BME280;4236;54.504;9.588;2022-09-03T10:14:10;101844.63;;;23.32;33.97
8398;BME280;4236;54.504;9.588;2022-09-03T10:16:42;101839.13;;;23.48;33.03
8398;BME280;4236;54.504;9.588;2022-09-03T10:19:16;101838.09;;;23.33;32.98
8398;BME280;4236;54.504;9.588;2022-09-03T10:21:50;101844.63;;;23.10;32.94
8398;BME280;4236;54.504;9.588;2022-09-03T10:24:41;101835.91;;;23.08;33.60
8398;BME280;4236;54.504;9.588;2022-09-03T10:27:15;101834.38;;;23.39;34.49
8398;BME280;4236;54.504;9.588;2022-09-03T10:29:45;101837.19;;;23.97;33.30
8398;BME280;4236;54.504;9.588;2022-09-03T10:32:20;101840.25;;;23.31;33.23
8398;BME280;4236;54.504;9.588;2022-09-03T10:35:02;101839.75;;;23.55;32.56
8398;BME280;4236;54.504;9.588;2022-09-03T10:37:36;101837.28;;;23.54;33.74
8398;BME280;4236;54.504;9.588;2022-09-03T10:40:14;101828.50;;;23.47;33.49
8398;BME280;4236;54.504;9.588;2022-09-03T10:42:57;101835.03;;;23.46;33.53
8398;BME280;4236;54.504;9.588;2022-09-03T10:45:34;101831.75;;;23.44;33.42
8398;BME280;4236;54.504;9.588;2022-09-03T10:48:33;101845.66;;;23.26;34.09
8398;BME280;4236;54.504;9.588;2022-09-03T10:51:12;101844.75;;;23.63;33.80
8398;BME280;4236;54.504;9.588;2022-09-03T10:56:53;101809.25;;;23.32;33.88
8398;BME280;4236;54.504;9.588;2022-09-03T10:59:31;101811.38;;;23.30;34.41
8398;BME280;4236;54.504;9.588;2022-09-03T11:02:19;101813.44;;;23.39;34.32
8398;BME280;4236;54.504;9.588;2022-09-03T11:04:55;101825.53;;;23.05;34.64
8398;BME280;4236;54.504;9.588;2022-09-03T11:07:29;101810.31;;;23.09;35.18
8398;BME280;4236;54.504;9.588;2022-09-03T11:10:06;101809.06;;;23.17;34.58
8398;BME280;4236;54.504;9.588;2022-09-03T11:12:42;101813.13;;;23.62;35.10
8398;BME280;4236;54.504;9.588;2022-09-03T11:15:16;101812.69;;;23.71;33.19
8398;BME280;4236;54.504;9.588;2022-09-03T11:17:57;101808.06;;;23.44;33.19
8398;BME280;4236;54.504;9.588;2022-09-03T11:20:28;101796.41;;;23.49;34.30
8398;BME280;4236;54.504;9.588;2022-09-03T11:22:58;101804.97;;;23.89;33.97
8398;BME280;4236;54.504;9.588;2022-09-03T11:25:30;101790.31;;;23.68;33.73
8398;BME280;4236;54.504;9.588;2022-09-03T11:28:08;101794.03;;;23.36;34.33
8398;BME280;4236;54.504;9.588;2022-09-03T11:30:48;101774.34;;;23.24;33.33
8398;BME280;4236;54.504;9.588;2022-09-03T11:33:20;101793.31;;;23.40;33.35
8398;BME280;4236;54.504;9.588;2022-09-03T11:35:55;101791.88;;;23.59;33.09
8398;BME280;4236;54.504;9.588;2022-09-03T11:38:26;101788.34;;;23.91;33.79
8398;BME280;4236;54.504;9.588;2022-09-03T11:40:59;101781.06;;;23.69;33.15
8398;BME280;4236;54.504;9.588;2022-09-03T11:43:28;101790.06;;;23.70;33.08
8398;BME280;4236;54.504;9.588;2022-09-03T11:46:06;101792.59;;;23.28;33.34
8398;BME280;4236;54.504;9.588;2022-09-03T11:48:41;101796.75;;;23.57;34.31
8398;BME280;4236;54.504;9.588;2022-09-03T11:51:29;101782.72;;;23.71;33.52
8398;BME280;4236;54.504;9.588;2022-09-03T11:53:58;101786.16;;;23.61;33.89
8398;BME280;4236;54.504;9.588;2022-09-03T11:56:27;101774.88;;;23.74;33.98
8398;BME280;4236;54.504;9.588;2022-09-03T11:59:00;101784.50;;;23.60;33.27
8398;BME280;4236;54.504;9.588;2022-09-03T12:01:30;101785.63;;;23.91;33.31
8398;BME280;4236;54.504;9.588;2022-09-03T12:04:02;101781.88;;;24.02;34.55
8398;BME280;4236;54.504;9.588;2022-09-03T12:06:47;101770.91;;;24.23;36.86
8398;BME280;4236;54.504;9.588;2022-09-03T12:09:43;101779.13;;;24.29;36.79
8398;BME280;4236;54.504;9.588;2022-09-03T12:12:31;101777.19;;;24.24;33.39
8398;BME280;4236;54.504;9.588;2022-09-03T12:15:10;101778.47;;;24.58;32.29
8398;BME280;4236;54.504;9.588;2022-09-03T12:17:49;101766.81;;;24.68;36.57
8398;BME280;4236;54.504;9.588;2022-09-03T12:20:40;101777.13;;;25.18;37.03
8398;BME280;4236;54.504;9.588;2022-09-03T12:23:09;101762.59;;;24.97;33.42
8398;BME280;4236;54.504;9.588;2022-09-03T12:25:42;101772.00;;;24.69;38.19
8398;BME280;4236;54.504;9.588;2022-09-03T12:28:12;101759.97;;;23.87;39.57
8398;BME280;4236;54.504;9.588;2022-09-03T12:30:44;101779.00;;;23.50;40.39
8398;BME280;4236;54.504;9.588;2022-09-03T12:33:16;101774.19;;;23.35;41.30
8398;BME280;4236;54.504;9.588;2022-09-03T12:35:55;101764.56;;;23.28;41.22
8398;BME280;4236;54.504;9.588;2022-09-03T12:38:25;101764.56;;;23.28;41.67
8398;BME280;4236;54.504;9.588;2022-09-03T12:40:53;101766.16;;;23.24;41.88
8398;BME280;4236;54.504;9.588;2022-09-03T12:43:49;101746.78;;;22.72;41.28
8398;BME280;4236;54.504;9.588;2022-09-03T12:46:21;101770.22;;;22.39;42.58
8398;BME280;4236;54.504;9.588;2022-09-03T12:48:59;101760.03;;;22.68;42.68
8398;BME280;4236;54.504;9.588;2022-09-03T12:51:57;101758.81;;;22.59;42.93
8398;BME280;4236;54.504;9.588;2022-09-03T12:54:33;101762.56;;;22.36;44.08
8398;BME280;4236;54.504;9.588;2022-09-03T12:57:01;101760.31;;;22.50;43.60
8398;BME280;4236;54.504;9.588;2022-09-03T12:59:32;101759.16;;;22.84;43.38
8398;BME280;4236;54.504;9.588;2022-09-03T13:02:05;101755.63;;;23.05;42.29
8398;BME280;4236;54.504;9.588;2022-09-03T13:04:39;101752.53;;;22.75;41.54
8398;BME280;4236;54.504;9.588;2022-09-03T13:07:12;101756.34;;;22.57;42.49
8398;BME280;4236;54.504;9.588;2022-09-03T13:09:41;101748.94;;;22.53;42.95
8398;BME280;4236;54.504;9.588;2022-09-03T13:12:20;101748.09;;;22.52;42.85
8398;BME280;4236;54.504;9.588;2022-09-03T13:14:48;101752.47;;;22.15;43.54
8398;BME280;4236;54.504;9.588;2022-09-03T13:17:26;101743.09;;;22.44;43.06
8398;BME280;4236;54.504;9.588;2022-09-03T13:20:11;101743.03;;;22.39;42.85
8398;BME280;4236;54.504;9.588;2022-09-03T13:22:57;101738.44;;;22.40;43.03
8398;BME280;4236;54.504;9.588;2022-09-03T13:25:31;101745.66;;;22.34;42.91
8398;BME280;4236;54.504;9.588;2022-09-03T13:28:07;101756.63;;;22.39;42.59
8398;BME280;4236;54.504;9.588;2022-09-03T13:30:48;101742.38;;;22.32;42.93
8398;BME280;4236;54.504;9.588;2022-09-03T13:33:23;101760.69;;;22.20;43.56
8398;BME280;4236;54.504;9.588;2022-09-03T13:35:59;101751.91;;;21.96;42.69
8398;BME280;4236;54.504;9.588;2022-09-03T13:38:33;101755.78;;;22.00;42.46
8398;BME280;4236;54.504;9.588;2022-09-03T13:41:09;101754.59;;;22.30;41.87
8398;BME280;4236;54.504;9.588;2022-09-03T13:43:42;101733.81;;;22.40;42.22